Time;durP1;ratioP1;P1;durP2;ratioP2;P2;SDS_P1;SDS_P2;PMS_P1;PMS_P2;Temp;Humidity;BMP_temperature;BMP_pressure;BME280_temperature;BME280_humidity;BME280_pressure;Samples;Min_cycle;Max_cycle;Signal;HPM_P1;HPM_P2
2023/09/10 00:00:45;;;;;;;5.05;4.32;;;16.90;99.90;;;;;;4876019;29;19988;-76
2023/09/10 00:03:13;;;;;;;4.97;4.40;;;16.90;99.90;;;;;;4877071;29;20048;-76
2023/09/10 00:05:39;;;;;;;4.70;4.20;;;16.90;99.90;;;;;;4863506;29;20475;-76
2023/09/10 00:08:04;;;;;;;;;;;16.90;99.90;;;;;;4874078;29;20488;-76
2023/09/10 00:10:30;;;;;;;4.93;4.43;;;16.90;99.90;;;;;;4881152;29;19923;-76
2023/09/10 00:12:56;;;;;;;;;;;16.90;99.90;;;;;;4885364;29;20476;-76
2023/09/10 00:15:21;;;;;;;4.60;4.20;;;16.90;99.90;;;;;;4876575;29;19923;-76
2023/09/10 00:17:47;;;;;;;;;;;16.80;99.90;;;;;;4877097;29;20094;-76
2023/09/10 00:20:13;;;;;;;4.22;3.83;;;16.80;99.90;;;;;;4888152;29;19927;-76
2023/09/10 00:22:42;;;;;;;4.32;3.83;;;16.80;99.90;;;;;;4869799;29;20513;-76
2023/09/10 00:25:09;;;;;;;4.82;4.32;;;16.70;99.90;;;;;;4843549;29;20101;-76
2023/09/10 00:27:35;;;;;;;4.55;3.95;;;16.80;99.90;;;;;;4868614;29;20052;-76
2023/09/10 00:30:00;;;;;;;;;;;16.70;99.90;;;;;;4879925;29;20476;-76
2023/09/10 00:32:26;;;;;;;5.05;4.55;;;16.80;99.90;;;;;;4888054;29;19920;-76
2023/09/10 00:34:52;;;;;;;4.88;4.32;;;16.80;99.90;;;;;;4876704;29;20045;-76
2023/09/10 00:37:17;;;;;;;5.45;4.85;;;16.80;99.90;;;;;;4874658;29;20493;-76
2023/09/10 00:39:44;;;;;;;6.65;5.80;;;16.80;99.90;;;;;;4875445;29;20125;-76
2023/09/10 00:42:10;;;;;;;8.90;7.43;;;16.80;99.90;;;;;;4867454;29;20052;-76
2023/09/10 00:44:40;;;;;;;;;;;16.70;99.90;;;;;;4876668;29;20056;-76
2023/09/10 00:47:06;;;;;;;13.50;10.13;;;16.70;99.90;;;;;;4876535;29;20370;-76
2023/09/10 00:49:31;;;;;;;;;;;16.70;99.90;;;;;;4876686;29;20057;-76
2023/09/10 00:51:59;;;;;;;10.30;8.63;;;16.80;99.90;;;;;;4876978;29;19919;-76
2023/09/10 00:54:25;;;;;;;8.38;7.32;;;16.80;99.90;;;;;;4882494;29;20398;-76
2023/09/10 00:56:52;;;;;;;;;;;16.80;99.90;;;;;;4883305;29;20051;-76
2023/09/10 00:59:18;;;;;;;8.90;6.65;;;16.80;99.90;;;;;;4866780;29;19919;-76
2023/09/10 01:01:44;;;;;;;7.38;6.45;;;16.80;99.90;;;;;;4882862;29;20124;-76
2023/09/10 01:04:10;;;;;;;;;;;16.70;99.90;;;;;;4879587;29;20134;-76
2023/09/10 01:06:36;;;;;;;6.03;5.30;;;16.60;99.90;;;;;;4884262;29;19930;-76
2023/09/10 01:09:04;;;;;;;5.60;4.97;;;16.60;99.90;;;;;;4879747;29;20117;-76
2023/09/10 01:11:42;;;;;;;5.65;4.90;;;16.60;99.90;;;;;;4876924;29;20056;-75
2023/09/10 01:14:18;;;;;;;5.25;4.75;;;16.60;99.90;;;;;;4872420;29;20064;-75
2023/09/10 01:16:51;;;;;;;5.55;4.63;;;16.60;99.90;;;;;;4878984;29;20056;-75
2023/09/10 01:19:42;;;;;;;5.00;4.50;;;16.50;99.90;;;;;;4877693;29;20064;-75
2023/09/10 01:22:32;;;;;;;4.60;4.20;;;16.50;99.90;;;;;;4877824;29;20056;-75
2023/09/10 01:24:59;;;;;;;5.25;4.50;;;16.50;99.90;;;;;;4878642;29;20056;-75
2023/09/10 01:27:25;;;;;;;5.45;4.57;;;16.50;99.90;;;;;;4885073;29;20107;-75
2023/09/10 01:29:50;;;;;;;;;;;16.50;99.90;;;;;;4872192;29;20057;-75
2023/09/10 01:32:25;;;;;;;6.10;5.30;;;16.50;99.90;;;;;;4877680;29;20023;-75
2023/09/10 01:35:21;;;;;;;5.78;5.20;;;16.50;99.90;;;;;;4879050;29;20128;-75
2023/09/10 01:38:09;;;;;;;6.43;5.47;;;16.50;99.90;;;;;;4864488;29;20048;-75
2023/09/10 01:40:45;;;;;;;7.75;6.05;;;16.40;99.90;;;;;;4868332;29;20131;-75
2023/09/10 01:43:11;;;;;;;6.75;5.80;;;16.40;99.90;;;;;;4876153;29;20045;-75
2023/09/10 01:45:37;;;;;;;;;;;16.40;99.90;;;;;;4862684;29;20037;-75
2023/09/10 01:48:04;;;;;;;6.72;6.00;;;16.40;99.90;;;;;;4876559;29;19971;-75
2023/09/10 01:50:30;;;;;;;6.75;5.97;;;16.50;99.90;;;;;;4859427;29;20045;-75
2023/09/10 01:52:58;;;;;;;;;;;16.40;99.90;;;;;;4875741;29;20035;-75
2023/09/10 01:55:25;;;;;;;5.80;5.07;;;16.40;99.90;;;;;;4875306;29;19927;-75
2023/09/10 01:57:53;;;;;;;5.63;4.80;;;16.40;99.90;;;;;;4875127;29;20051;-75
2023/09/10 02:00:19;;;;;;;5.68;4.60;;;16.40;99.90;;;;;;4881237;29;20051;-75
2023/09/10 02:02:45;;;;;;;;;;;16.40;99.90;;;;;;4871850;29;20044;-75
2023/09/10 02:05:10;;;;;;;4.43;4.03;;;16.40;99.90;;;;;;4877881;29;19931;-75
2023/09/10 02:07:36;;;;;;;4.90;4.35;;;16.40;99.90;;;;;;4879284;29;20541;-75
2023/09/10 02:10:02;;;;;;;4.47;3.58;;;16.40;99.90;;;;;;4863378;29;20040;-75
2023/09/10 02:12:28;;;;;;;4.63;3.90;;;16.40;99.90;;;;;;4882028;29;20048;-75
2023/09/10 02:14:57;;;;;;;3.92;3.53;;;16.40;99.90;;;;;;4878803;29;20405;-75
2023/09/10 02:17:23;;;;;;;5.00;4.00;;;16.40;99.90;;;;;;4878516;29;20041;-75
2023/09/10 02:19:49;;;;;;;4.00;3.50;;;16.30;99.90;;;;;;4878600;29;20540;-75
2023/09/10 02:22:15;;;;;;;4.03;3.63;;;16.30;99.90;;;;;;4882908;29;20471;-75
2023/09/10 02:24:40;;;;;;;4.40;3.97;;;16.30;99.90;;;;;;4886012;29;20535;-75
2023/09/10 02:27:06;;;;;;;4.30;3.65;;;16.30;99.90;;;;;;4886273;29;20041;-75
2023/09/10 02:29:32;;;;;;;4.00;3.60;;;16.20;99.90;;;;;;4881734;29;20048;-75
2023/09/10 02:31:57;;;;;;;4.45;3.97;;;16.20;99.90;;;;;;4881161;29;20044;-75
2023/09/10 02:34:23;;;;;;;;;;;16.20;99.90;;;;;;4879370;29;20512;-75
2023/09/10 02:36:48;;;;;;;5.07;4.57;;;16.20;99.90;;;;;;4862995;29;20373;-75
2023/09/10 02:39:14;;;;;;;5.53;4.80;;;16.20;99.90;;;;;;4877013;29;20048;-75
2023/09/10 02:41:40;;;;;;;;;;;16.10;99.90;;;;;;4878883;29;20049;-75
2023/09/10 02:44:05;;;;;;;4.30;3.90;;;16.10;99.90;;;;;;4862538;29;19920;-75
2023/09/10 02:46:31;;;;;;;;;;;16.10;99.90;;;;;;4878995;29;20049;-75
2023/09/10 02:48:56;;;;;;;4.63;3.70;;;16.10;99.90;;;;;;4880901;29;19927;-75
2023/09/10 02:51:22;;;;;;;4.40;3.70;;;16.10;99.90;;;;;;4878394;29;20073;-75
2023/09/10 02:53:48;;;;;;;;;;;16.00;99.90;;;;;;4878028;29;20056;-75
2023/09/10 02:56:22;;;;;;;4.15;3.75;;;16.00;99.90;;;;;;4844465;29;19996;-75
2023/09/10 02:58:48;;;;;;;4.53;4.10;;;16.00;99.90;;;;;;4858884;29;20381;-76
2023/09/10 03:01:13;;;;;;;4.82;4.13;;;16.00;99.90;;;;;;4877210;29;20052;-75
2023/09/10 03:03:39;;;;;;;5.10;4.40;;;16.00;99.90;;;;;;4877726;29;20076;-75
2023/09/10 03:06:12;;;;;;;4.70;4.05;;;16.00;99.90;;;;;;4860334;29;20060;-75
2023/09/10 03:08:38;;;;;;;5.03;4.53;;;16.00;99.90;;;;;;4882112;29;20053;-75
2023/09/10 03:11:04;;;;;;;4.85;4.35;;;15.90;99.90;;;;;;4875722;29;20072;-75
2023/09/10 03:13:30;;;;;;;6.28;4.90;;;15.90;99.90;;;;;;4876024;29;20048;-76
2023/09/10 03:15:55;;;;;;;6.35;4.95;;;15.90;99.90;;;;;;4856228;29;20037;-76
2023/09/10 03:18:21;;;;;;;5.82;4.80;;;15.90;99.90;;;;;;4846762;29;20055;-75
2023/09/10 03:20:47;;;;;;;5.70;4.97;;;15.90;99.90;;;;;;4874201;29;20104;-75
2023/09/10 03:23:12;;;;;;;5.25;4.68;;;15.90;99.90;;;;;;4864056;29;20049;-75
2023/09/10 03:25:39;;;;;;;5.90;5.15;;;15.90;99.90;;;;;;4878148;29;20128;-76
2023/09/10 03:28:06;;;;;;;5.95;5.15;;;15.90;99.90;;;;;;4877772;29;20053;-76
2023/09/10 03:30:31;;;;;;;;;;;15.90;99.90;;;;;;4878467;29;20056;-75
2023/09/10 03:32:57;;;;;;;5.38;4.85;;;15.90;99.90;;;;;;4861823;29;19923;-75
2023/09/10 03:35:22;;;;;;;5.70;4.90;;;15.90;99.90;;;;;;4875195;29;20091;-75
2023/09/10 03:37:48;;;;;;;;;;;15.90;99.90;;;;;;4878242;29;20053;-75
2023/09/10 03:40:14;;;;;;;5.75;4.60;;;15.80;99.90;;;;;;4878104;29;19926;-75
2023/09/10 03:42:40;;;;;;;5.30;4.80;;;15.80;99.90;;;;;;4867636;29;20405;-75
2023/09/10 03:45:06;;;;;;;5.00;4.47;;;15.80;99.90;;;;;;4877349;29;20056;-75
2023/09/10 03:47:33;;;;;;;;;;;15.70;99.90;;;;;;4880599;29;20049;-76
2023/09/10 03:50:00;;;;;;;5.10;4.00;;;15.70;99.90;;;;;;4886362;29;19934;-75
2023/09/10 03:52:25;;;;;;;4.40;4.00;;;15.70;99.90;;;;;;4879688;29;20120;-75
2023/09/10 03:54:51;;;;;;;4.20;3.53;;;15.70;99.90;;;;;;4878051;29;20533;-76
2023/09/10 03:57:17;;;;;;;4.45;3.70;;;15.70;99.90;;;;;;4878168;29;20048;-75
2023/09/10 03:59:42;;;;;;;4.72;3.88;;;15.70;99.90;;;;;;4877383;29;20053;-75
2023/09/10 04:02:09;;;;;;;3.45;3.03;;;15.70;99.90;;;;;;4865239;29;20053;-75
2023/09/10 04:04:34;;;;;;;;;;;15.60;99.90;;;;;;4874691;29;20076;-75
2023/09/10 04:07:01;;;;;;;3.97;3.10;;;15.60;99.90;;;;;;4872096;29;20006;-75
2023/09/10 04:09:26;;;;;;;;;;;15.60;99.90;;;;;;4880334;29;20053;-75
2023/09/10 04:11:52;;;;;;;3.50;3.08;;;15.60;99.90;;;;;;4861844;29;19924;-75
2023/09/10 04:14:18;;;;;;;3.70;2.70;;;15.60;99.90;;;;;;4876183;29;20059;-75
2023/09/10 04:16:44;;;;;;;;;;;15.50;99.90;;;;;;4882852;29;20074;-76
2023/09/10 04:19:09;;;;;;;2.80;2.40;;;15.50;99.90;;;;;;4876945;29;19963;-76
2023/09/10 04:21:35;;;;;;;3.75;2.67;;;15.50;99.90;;;;;;4876172;29;20064;-75
2023/09/10 04:24:01;;;;;;;3.10;2.42;;;15.50;99.90;;;;;;4860724;29;20052;-75
2023/09/10 04:26:26;;;;;;;3.58;2.90;;;15.60;99.90;;;;;;4845596;29;20041;-76
2023/09/10 04:28:52;;;;;;;4.90;3.10;;;15.60;99.90;;;;;;4881469;29;20057;-76
2023/09/10 04:31:18;;;;;;;4.63;3.53;;;15.60;99.90;;;;;;4860970;29;20053;-75
2023/09/10 04:33:44;;;;;;;4.75;3.78;;;15.60;99.90;;;;;;4878652;29;20109;-75
2023/09/10 04:36:10;;;;;;;4.80;3.75;;;15.60;99.90;;;;;;4860691;29;20061;-75
2023/09/10 04:38:36;;;;;;;5.32;3.90;;;15.50;99.90;;;;;;4876533;29;20045;-75
2023/09/10 04:41:02;;;;;;;5.40;3.60;;;15.50;99.90;;;;;;4876129;29;20401;-75
2023/09/10 04:43:27;;;;;;;5.25;3.58;;;15.50;99.90;;;;;;4886304;29;20055;-75
2023/09/10 04:45:53;;;;;;;4.72;3.33;;;15.50;99.90;;;;;;4878586;29;20048;-75
2023/09/10 04:48:19;;;;;;;4.43;3.25;;;15.50;99.90;;;;;;4882968;29;20133;-76
2023/09/10 04:50:45;;;;;;;4.53;3.17;;;15.40;99.90;;;;;;4875038;29;20037;-75
2023/09/10 04:53:13;;;;;;;3.80;3.10;;;15.40;99.90;;;;;;4875720;29;20072;-75
2023/09/10 04:55:39;;;;;;;4.25;3.30;;;15.40;99.90;;;;;;4875621;29;20120;-75
2023/09/10 04:58:04;;;;;;;4.00;3.15;;;15.40;99.90;;;;;;4872174;29;20132;-75
2023/09/10 05:00:31;;;;;;;3.50;2.92;;;15.40;99.90;;;;;;4857920;29;20136;-76
2023/09/10 05:02:56;;;;;;;3.85;2.90;;;15.40;99.90;;;;;;4841938;29;20045;-75
2023/09/10 05:05:22;;;;;;;3.60;2.80;;;15.40;99.90;;;;;;4874882;29;20097;-75
2023/09/10 05:07:51;;;;;;;3.90;2.80;;;15.40;99.90;;;;;;4857554;29;20732;-75
2023/09/10 05:10:17;;;;;;;3.42;2.83;;;15.40;99.90;;;;;;4872427;29;20056;-75
2023/09/10 05:12:43;;;;;;;2.80;2.50;;;15.40;99.90;;;;;;4875993;29;20045;-75
2023/09/10 05:15:10;;;;;;;3.00;2.60;;;15.40;99.90;;;;;;4870547;29;20036;-75
2023/09/10 05:17:36;;;;;;;2.83;2.45;;;15.40;99.90;;;;;;4880828;29;20048;-75
2023/09/10 05:20:03;;;;;;;2.65;2.38;;;15.40;99.90;;;;;;4876687;29;20087;-75
2023/09/10 05:22:29;;;;;;;2.53;2.30;;;15.50;99.90;;;;;;4860610;29;20060;-75
2023/09/10 05:24:54;;;;;;;;;;;15.50;99.90;;;;;;4871872;29;20489;-75
2023/09/10 05:27:20;;;;;;;3.03;2.42;;;15.50;99.90;;;;;;4860689;29;20010;-75
2023/09/10 05:29:46;;;;;;;3.47;2.78;;;15.50;99.90;;;;;;4876298;29;20044;-75
2023/09/10 05:32:12;;;;;;;;;;;15.60;99.90;;;;;;4857376;29;20052;-75
2023/09/10 05:34:38;;;;;;;3.00;2.70;;;15.60;99.90;;;;;;4856924;29;19935;-76
2023/09/10 05:37:03;;;;;;;3.35;2.95;;;15.60;99.90;;;;;;4869294;29;20053;-75
2023/09/10 05:39:29;;;;;;;3.75;3.08;;;15.60;99.90;;;;;;4853023;29;20067;-74
2023/09/10 05:41:54;;;;;;;3.22;2.90;;;15.70;99.90;;;;;;4872634;29;20105;-74
2023/09/10 05:44:20;;;;;;;3.00;2.60;;;15.80;99.90;;;;;;4871757;29;20055;-76
2023/09/10 05:46:46;;;;;;;2.85;2.50;;;15.80;99.90;;;;;;4874130;29;20091;-75
2023/09/10 05:49:12;;;;;;;2.70;2.30;;;15.80;99.90;;;;;;4860679;29;20564;-75
2023/09/10 05:51:38;;;;;;;;;;;15.90;99.90;;;;;;4871268;29;20133;-75
2023/09/10 05:54:04;;;;;;;2.42;2.10;;;15.90;99.90;;;;;;4881981;29;20030;-76
2023/09/10 05:56:29;;;;;;;2.25;2.05;;;16.00;99.90;;;;;;4858243;29;20645;-75
2023/09/10 05:58:55;;;;;;;2.25;2.00;;;16.10;99.90;;;;;;4877015;29;20049;-75
2023/09/10 06:01:21;;;;;;;2.30;2.00;;;16.10;99.90;;;;;;4875191;29;20041;-76
2023/09/10 06:03:46;;;;;;;2.20;1.92;;;16.20;99.90;;;;;;4875087;29;20378;-75
2023/09/10 06:06:12;;;;;;;;;;;16.20;99.90;;;;;;4855646;29;20394;-76
2023/09/10 06:08:38;;;;;;;2.15;1.65;;;16.30;99.90;;;;;;4868892;29;19931;-76
2023/09/10 06:11:03;;;;;;;2.72;2.08;;;16.40;99.90;;;;;;4881003;29;20052;-76
2023/09/10 06:13:30;;;;;;;;;;;16.50;99.90;;;;;;4877291;29;20132;-76
2023/09/10 06:15:57;;;;;;;2.47;2.10;;;16.60;99.90;;;;;;4871494;29;19983;-75
2023/09/10 06:18:23;;;;;;;2.30;2.00;;;16.70;99.90;;;;;;4871298;29;20049;-76
2023/09/10 06:20:48;;;;;;;;;;;16.80;99.90;;;;;;4853969;29;20068;-76
2023/09/10 06:23:14;;;;;;;3.25;2.80;;;16.90;99.90;;;;;;4889431;29;19923;-76
2023/09/10 06:25:40;;;;;;;3.20;2.78;;;17.00;99.90;;;;;;4874371;29;20056;-76
2023/09/10 06:28:06;;;;;;;3.00;2.70;;;17.10;99.90;;;;;;4875163;29;20045;-76
2023/09/10 06:30:32;;;;;;;3.20;2.80;;;17.20;99.90;;;;;;4872417;29;20053;-76
2023/09/10 06:32:57;;;;;;;;;;;17.30;99.90;;;;;;4872628;29;20044;-75
2023/09/10 06:35:23;;;;;;;3.42;2.83;;;17.40;99.90;;;;;;4872916;29;19998;-75
2023/09/10 06:37:49;;;;;;;;;;;17.50;99.90;;;;;;4873347;29;20056;-75
2023/09/10 06:40:15;;;;;;;2.88;2.58;;;17.60;99.90;;;;;;4873000;29;19924;-75
2023/09/10 06:42:40;;;;;;;;;;;17.80;99.90;;;;;;4872938;29;20045;-75
2023/09/10 06:45:06;;;;;;;2.58;2.33;;;18.00;99.90;;;;;;4870817;29;19957;-75
2023/09/10 06:47:32;;;;;;;;;;;18.30;99.90;;;;;;4855851;29;20068;-75
2023/09/10 06:49:58;;;;;;;3.15;2.70;;;18.60;99.90;;;;;;4872013;29;19996;-75
2023/09/10 06:52:23;;;;;;;;;;;18.80;99.90;;;;;;4869459;29;20053;-75
2023/09/10 06:54:50;;;;;;;3.78;3.38;;;19.10;99.90;;;;;;4847354;29;19990;-75
2023/09/10 06:57:15;;;;;;;4.18;3.65;;;19.30;99.90;;;;;;4858272;29;20466;-75
2023/09/10 06:59:41;;;;;;;;;;;19.50;99.90;;;;;;4860792;29;20089;-75
2023/09/10 07:02:06;;;;;;;3.80;3.40;;;19.70;99.90;;;;;;4876207;29;19928;-75
2023/09/10 07:04:32;;;;;;;;;;;19.80;99.90;;;;;;4881649;29;20059;-75
2023/09/10 07:06:58;;;;;;;4.63;3.80;;;20.00;99.90;;;;;;4882381;29;19923;-75
2023/09/10 07:09:24;;;;;;;4.15;3.42;;;20.30;99.90;;;;;;4858872;29;20049;-75
2023/09/10 07:11:51;;;;;;;4.53;4.03;;;20.40;99.90;;;;;;4880860;29;20037;-75
2023/09/10 07:14:18;;;;;;;4.10;3.45;;;20.50;99.90;;;;;;4865497;29;20112;-76
2023/09/10 07:16:44;;;;;;;4.47;3.88;;;20.70;99.90;;;;;;4861082;29;20045;-75
2023/09/10 07:19:11;;;;;;;3.28;2.97;;;20.90;99.90;;;;;;4884814;29;20569;-75
2023/09/10 07:21:37;;;;;;;3.63;2.97;;;21.10;99.90;;;;;;4880018;29;20093;-75
2023/09/10 07:24:06;;;;;;;3.75;3.40;;;21.40;99.90;;;;;;4871464;29;20052;-75
2023/09/10 07:26:33;;;;;;;3.55;3.20;;;21.50;99.90;;;;;;4876759;29;20125;-75
2023/09/10 07:28:58;;;;;;;3.65;3.33;;;21.70;99.90;;;;;;4877486;29;20564;-76
2023/09/10 07:31:24;;;;;;;3.95;3.20;;;21.80;99.90;;;;;;4877115;29;20097;-75
2023/09/10 07:33:50;;;;;;;3.85;3.42;;;22.00;99.90;;;;;;4860737;29;20041;-76
2023/09/10 07:36:15;;;;;;;3.15;2.85;;;22.10;99.90;;;;;;4873551;29;20079;-76
2023/09/10 07:38:41;;;;;;;3.47;3.13;;;22.30;99.90;;;;;;4859437;29;20056;-77
2023/09/10 07:41:07;;;;;;;3.58;3.15;;;22.40;99.90;;;;;;4854832;29;20049;-76
2023/09/10 07:43:33;;;;;;;4.50;4.07;;;22.50;99.90;;;;;;4876176;29;20140;-76
2023/09/10 07:45:58;;;;;;;4.13;3.20;;;22.60;99.90;;;;;;4875061;29;20045;-76
2023/09/10 07:48:24;;;;;;;4.13;3.72;;;22.70;99.90;;;;;;4874664;29;20106;-77
2023/09/10 07:50:57;;;;;;;3.30;2.95;;;22.80;99.90;;;;;;4872902;29;20064;-74
2023/09/10 07:53:23;;;;;;;3.90;3.50;;;23.00;99.90;;;;;;4873419;29;20045;-75
2023/09/10 07:55:49;;;;;;;4.32;3.83;;;23.00;99.90;;;;;;4876476;29;20049;-74
2023/09/10 07:58:15;;;;;;;4.60;3.70;;;23.10;99.90;;;;;;4860249;29;20490;-74
2023/09/10 08:00:41;;;;;;;4.25;3.50;;;23.20;1.00;;;;;;4840609;29;20527;-75
2023/09/10 08:03:07;;;;;;;3.88;3.47;;;23.30;99.90;;;;;;4878650;29;20044;-75
2023/09/10 08:05:33;;;;;;;4.30;3.90;;;23.40;1.00;;;;;;4841613;29;20056;-78
2023/09/10 08:08:05;;;;;;;3.25;2.90;;;23.40;1.00;;;;;;4873441;29;20769;-74
2023/09/10 08:10:32;;;;;;;3.65;3.28;;;23.50;99.90;;;;;;4853575;29;20482;-80
2023/09/10 08:12:58;;;;;;;2.90;2.58;;;23.50;99.90;;;;;;4871797;29;20049;-76
2023/09/10 08:15:24;;;;;;;3.13;2.80;;;23.60;99.90;;;;;;4859505;29;20045;-75
2023/09/10 08:17:53;;;;;;;2.60;2.33;;;23.80;1.00;;;;;;4873026;29;20386;-74
2023/09/10 08:20:18;;;;;;;2.70;2.50;;;23.90;12.80;;;;;;4872458;29;20101;-74
2023/09/10 08:22:44;;;;;;;3.25;2.92;;;24.10;99.90;;;;;;4872550;29;20442;-74
2023/09/10 08:25:10;;;;;;;3.05;2.75;;;24.20;99.90;;;;;;4864964;29;20094;-74
2023/09/10 08:27:36;;;;;;;2.90;2.60;;;24.20;1.00;;;;;;4876897;29;20049;-74
2023/09/10 08:30:05;;;;;;;2.50;2.30;;;24.30;99.90;;;;;;4874813;29;20041;-74
2023/09/10 08:32:37;;;;;;;3.10;2.67;;;24.40;99.90;;;;;;4875836;29;20489;-74
2023/09/10 08:35:04;;;;;;;2.80;2.42;;;24.60;99.90;;;;;;4875363;29;20052;-74
2023/09/10 08:37:30;;;;;;;2.55;2.35;;;24.70;99.90;;;;;;4874018;29;20048;-74
2023/09/10 08:39:56;;;;;;;2.53;2.30;;;24.80;99.90;;;;;;4877819;29;20533;-74
2023/09/10 08:42:38;;;;;;;2.40;2.20;;;25.00;99.90;;;;;;4873623;29;20049;-74
2023/09/10 08:45:09;;;;;;;2.30;1.90;;;25.00;99.90;;;;;;4876139;29;20056;-74
2023/09/10 08:47:40;;;;;;;2.45;2.25;;;25.20;1.00;;;;;;4860837;29;20141;-74
2023/09/10 08:50:13;;;;;;;2.63;2.28;;;25.30;99.90;;;;;;4876832;29;20045;-74
2023/09/10 08:52:44;;;;;;;2.60;2.40;;;25.40;99.90;;;;;;4877422;29;20049;-74
2023/09/10 08:55:12;;;;;;;3.05;2.38;;;25.40;99.90;;;;;;4875954;29;20055;-74
2023/09/10 08:57:39;;;;;;;2.20;1.95;;;25.60;99.90;;;;;;4876246;29;20049;-74
2023/09/10 09:00:12;;;;;;;2.00;1.80;;;25.70;99.90;;;;;;4877508;29;20048;-74
2023/09/10 09:02:44;;;;;;;2.40;2.10;;;25.70;1.00;;;;;;4876170;29;20041;-74
2023/09/10 09:05:10;;;;;;;2.30;2.10;;;25.80;24.50;;;;;;4876047;29;20037;-75
2023/09/10 09:07:57;;;;;;;2.17;1.98;;;25.90;99.90;;;;;;4860651;29;20117;-74
2023/09/10 09:10:28;;;;;;;3.55;2.28;;;26.00;94.50;;;;;;4876182;29;20048;-74
2023/09/10 09:12:59;;;;;;;2.20;2.00;;;26.00;1.00;;;;;;4875239;29;20045;-74
2023/09/10 09:15:26;;;;;;;2.17;1.98;;;26.10;65.90;;;;;;4875933;29;20076;-74
2023/09/10 09:17:55;;;;;;;2.70;2.00;;;26.20;7.60;;;;;;4875083;29;20048;-74
2023/09/10 09:20:22;;;;;;;2.13;1.90;;;26.20;4.70;;;;;;4853189;29;20518;-75
2023/09/10 09:22:52;;;;;;;1.95;1.80;;;26.30;1.00;;;;;;4872994;29;20049;-74
2023/09/10 09:25:17;;;;;;;2.05;1.85;;;26.40;99.90;;;;;;4860771;29;20100;-74
2023/09/10 09:27:44;;;;;;;2.08;1.83;;;26.40;99.90;;;;;;4875728;29;20044;-75
2023/09/10 09:30:11;;;;;;;2.40;2.20;;;26.40;99.90;;;;;;4874988;29;20045;-75
2023/09/10 09:32:37;;;;;;;1.80;1.70;;;26.50;99.90;;;;;;4860637;29;20045;-74
2023/09/10 09:35:04;;;;;;;2.38;1.80;;;26.50;99.90;;;;;;4860339;29;20045;-74
2023/09/10 09:37:33;;;;;;;2.17;1.73;;;26.50;99.90;;;;;;4875707;29;20124;-74
2023/09/10 09:39:59;;;;;;;2.08;1.88;;;26.50;99.90;;;;;;4875432;29;20052;-74
2023/09/10 09:42:26;;;;;;;1.90;1.70;;;26.60;99.90;;;;;;4875756;29;20497;-74
2023/09/10 09:44:52;;;;;;;1.83;1.65;;;26.70;99.90;;;;;;4873387;29;20064;-75
2023/09/10 09:47:18;;;;;;;1.73;1.60;;;26.80;99.90;;;;;;4860173;29;20080;-74
2023/09/10 09:49:44;;;;;;;1.70;1.60;;;26.80;99.90;;;;;;4860153;29;20052;-74
2023/09/10 09:52:11;;;;;;;1.80;1.70;;;26.80;99.90;;;;;;4860086;29;20052;-74
2023/09/10 09:54:37;;;;;;;1.90;1.70;;;26.90;99.90;;;;;;4875155;29;20045;-74
2023/09/10 09:57:04;;;;;;;1.90;1.70;;;26.90;99.90;;;;;;4860441;29;20178;-74
2023/09/10 09:59:34;;;;;;;1.70;1.60;;;27.00;1.00;;;;;;4857088;29;20057;-74
2023/09/10 10:02:00;;;;;;;1.77;1.60;;;27.10;1.00;;;;;;4860186;29;20152;-74
2023/09/10 10:04:26;;;;;;;1.90;1.70;;;27.20;1.00;;;;;;4874948;29;20442;-74
2023/09/10 10:06:52;;;;;;;1.88;1.67;;;27.20;1.00;;;;;;4874602;29;20075;-74
2023/09/10 10:09:19;;;;;;;2.58;2.00;;;27.20;99.90;;;;;;4858790;29;20123;-74
2023/09/10 10:11:46;;;;;;;1.67;1.58;;;27.30;99.90;;;;;;4872655;29;20059;-74
2023/09/10 10:14:12;;;;;;;2.10;1.70;;;27.30;99.90;;;;;;4868727;29;20388;-74
2023/09/10 10:16:38;;;;;;;2.00;1.80;;;27.30;99.90;;;;;;4870042;29;20064;-74
2023/09/10 10:19:05;;;;;;;1.90;1.73;;;27.30;99.90;;;;;;4871613;29;20481;-75
2023/09/10 10:21:32;;;;;;;1.90;1.60;;;27.40;1.00;;;;;;4843720;29;20091;-74
2023/09/10 10:23:57;;;;;;;1.65;1.55;;;27.40;99.90;;;;;;4874693;29;20053;-74
2023/09/10 10:26:24;;;;;;;1.73;1.63;;;27.50;99.90;;;;;;4877315;29;20061;-75
2023/09/10 10:28:50;;;;;;;1.70;1.60;;;27.60;99.90;;;;;;4855408;29;20148;-75
2023/09/10 10:31:18;;;;;;;1.80;1.60;;;27.60;99.90;;;;;;4878712;29;20112;-75
2023/09/10 10:34:08;;;;;;;2.42;2.00;;;27.80;99.90;;;;;;4863193;29;20052;-75
2023/09/10 10:37:05;;;;;;;2.25;2.05;;;27.80;99.90;;;;;;4876205;29;20172;-75
2023/09/10 10:39:57;;;;;;;2.10;1.90;;;27.90;99.90;;;;;;4872969;29;20041;-75
2023/09/10 10:42:37;;;;;;;2.03;1.83;;;27.90;99.90;;;;;;4853807;29;20068;-75
2023/09/10 10:45:06;;;;;;;1.73;1.63;;;28.10;99.90;;;;;;4876301;29;20155;-74
2023/09/10 10:47:38;;;;;;;2.17;1.98;;;28.30;99.90;;;;;;4877187;29;20045;-74
2023/09/10 10:50:07;;;;;;;1.73;1.63;;;28.40;99.90;;;;;;4878364;29;20060;-75
2023/09/10 10:52:35;;;;;;;1.88;1.77;;;28.40;99.90;;;;;;4877277;29;20131;-74
2023/09/10 10:55:02;;;;;;;2.30;1.67;;;28.50;99.90;;;;;;4861335;29;20041;-75
2023/09/10 10:57:29;;;;;;;2.05;1.85;;;28.60;97.40;;;;;;4876778;29;20041;-75
2023/09/10 10:59:55;;;;;;;2.10;1.70;;;28.60;91.00;;;;;;4871301;29;20153;-73
2023/09/10 11:02:22;;;;;;;1.70;1.60;;;28.70;99.90;;;;;;4857842;29;20064;-73
2023/09/10 11:05:05;;;;;;;1.73;1.63;;;28.80;99.90;;;;;;4873562;29;20093;-73
2023/09/10 11:07:34;;;;;;;1.67;1.50;;;29.00;99.90;;;;;;4874465;29;20235;-73
2023/09/10 11:10:26;;;;;;;1.85;1.60;;;29.10;80.80;;;;;;4858929;29;20049;-73
2023/09/10 11:13:09;;;;;;;1.60;1.45;;;29.30;99.90;;;;;;4874534;29;20077;-73
2023/09/10 11:15:36;;;;;;;2.30;1.90;;;29.50;1.00;;;;;;4872821;29;20668;-74
2023/09/10 11:18:36;;;;;;;1.80;1.60;;;29.60;1.00;;;;;;4874017;29;20057;-73
2023/09/10 11:21:08;;;;;;;1.73;1.63;;;29.80;99.90;;;;;;4869139;29;20053;-74
2023/09/10 11:23:36;;;;;;;2.08;1.70;;;29.80;99.90;;;;;;4874842;29;20516;-74
2023/09/10 11:26:14;;;;;;;1.60;1.50;;;29.80;99.90;;;;;;4857860;29;20045;-74
2023/09/10 11:28:51;;;;;;;1.75;1.60;;;29.90;99.90;;;;;;4860798;29;20378;-72
2023/09/10 11:31:38;;;;;;;1.85;1.75;;;29.90;99.90;;;;;;4871518;29;20540;-83
2023/09/10 11:34:23;;;;;;;2.28;2.00;;;30.10;99.90;;;;;;4873543;29;20045;-74
2023/09/10 11:37:03;;;;;;;2.10;1.80;;;30.20;99.90;;;;;;4876547;29;20061;-74
2023/09/10 11:39:34;;;;;;;1.50;1.40;;;30.20;82.00;;;;;;4875820;29;20076;-74
2023/09/10 11:42:02;;;;;;;1.63;1.52;;;30.20;99.90;;;;;;4874319;29;20108;-73
2023/09/10 11:44:28;;;;;;;1.52;1.42;;;30.20;99.90;;;;;;4873360;29;20057;-73
2023/09/10 11:46:54;;;;;;;1.63;1.48;;;30.30;99.90;;;;;;4877368;29;20049;-73
2023/09/10 11:49:22;;;;;;;1.80;1.60;;;30.40;99.90;;;;;;4872302;29;20052;-73
2023/09/10 11:51:50;;;;;;;1.67;1.40;;;30.50;99.90;;;;;;4875913;29;20048;-73
2023/09/10 11:54:18;;;;;;;1.98;1.77;;;30.50;96.40;;;;;;4873666;29;20112;-74
2023/09/10 11:56:58;;;;;;;1.50;1.40;;;30.40;99.90;;;;;;4867176;29;20080;-74
2023/09/10 11:59:31;;;;;;;1.50;1.40;;;30.40;99.90;;;;;;4874121;29;20052;-74
2023/09/10 12:01:57;;;;;;;2.15;1.95;;;30.50;99.90;;;;;;4873734;29;20061;-73
2023/09/10 12:04:31;;;;;;;1.98;1.58;;;30.50;98.10;;;;;;4873250;29;20147;-73
2023/09/10 12:06:57;;;;;;;2.30;1.50;;;30.50;80.10;;;;;;4869119;29;20067;-73
2023/09/10 12:09:23;;;;;;;1.60;1.50;;;30.60;20.50;;;;;;4871054;29;20049;-73
2023/09/10 12:11:52;;;;;;;2.05;1.85;;;30.50;3.50;;;;;;4860609;29;20064;-76
2023/09/10 12:14:18;;;;;;;2.58;1.90;;;30.50;49.60;;;;;;4867328;29;20048;-74
2023/09/10 12:16:45;;;;;;;2.60;1.88;;;30.50;78.00;;;;;;4874626;29;20042;-75
2023/09/10 12:19:10;;;;;;;2.20;1.80;;;30.50;1.00;;;;;;4877489;29;20205;-75
2023/09/10 12:21:36;;;;;;;2.20;1.90;;;30.60;50.40;;;;;;4857943;29;20205;-75
2023/09/10 12:24:02;;;;;;;1.83;1.63;;;30.60;81.90;;;;;;4841507;29;20044;-76
2023/09/10 12:26:28;;;;;;;1.73;1.45;;;30.60;1.00;;;;;;4854902;29;20049;-76
2023/09/10 12:28:54;;;;;;;1.60;1.50;;;30.70;29.10;;;;;;4876105;29;20504;-75
2023/09/10 12:31:21;;;;;;;2.22;1.70;;;30.70;1.00;;;;;;4876184;29;20133;-75
2023/09/10 12:33:47;;;;;;;2.15;1.63;;;30.80;46.50;;;;;;4875344;29;20045;-75
2023/09/10 12:36:14;;;;;;;1.98;1.70;;;30.80;99.90;;;;;;4875325;29;20049;-75
2023/09/10 12:38:39;;;;;;;2.15;1.95;;;30.80;1.00;;;;;;4872888;29;20152;-76
2023/09/10 12:41:05;;;;;;;1.70;1.50;;;30.70;99.90;;;;;;4855458;29;20137;-75
2023/09/10 12:43:31;;;;;;;2.30;1.65;;;30.80;3.10;;;;;;4872338;29;20453;-75
2023/09/10 12:45:57;;;;;;;2.33;1.83;;;30.90;15.60;;;;;;4853705;29;20053;-72
2023/09/10 12:48:23;;;;;;;1.90;1.70;;;30.90;1.00;;;;;;4856408;29;20048;-75
2023/09/10 12:50:50;;;;;;;1.70;1.60;;;30.90;1.00;;;;;;4875716;29;20041;-75
2023/09/10 12:53:16;;;;;;;2.00;1.70;;;30.90;99.90;;;;;;4876338;29;20053;-75
2023/09/10 12:55:42;;;;;;;2.15;1.90;;;30.70;99.90;;;;;;4875539;29;20049;-75
2023/09/10 12:58:11;;;;;;;3.45;1.63;;;30.70;1.00;;;;;;4867264;29;20037;-75
2023/09/10 13:00:37;;;;;;;2.08;1.65;;;30.70;1.00;;;;;;4870393;29;20098;-75